Time;durP1;ratioP1;P1;durP2;ratioP2;P2;SDS_P1;SDS_P2;PMS_P1;PMS_P2;Temp;Humidity;BMP_temperature;BMP_pressure;BME280_temperature;BME280_humidity;BME280_pressure;Samples;Min_cycle;Max_cycle;Signal;HPM_P1;HPM_P2
2021/03/28 00:00:08;;;;;;;15.30;3.93;;;4.00;86.50;;;;;;5073358;28;20492;-82
2021/03/28 00:02:51;;;;;;;21.30;5.20;;;4.00;86.60;;;;;;5055293;28;20183;-82
2021/03/28 00:05:31;;;;;;;16.43;4.83;;;4.00;86.00;;;;;;5073058;28;20200;-82
2021/03/28 00:08:18;;;;;;;19.43;5.90;;;4.10;85.80;;;;;;5073051;28;20665;-82
2021/03/28 00:10:54;;;;;;;18.53;4.27;;;4.00;85.80;;;;;;5055106;28;20182;-82
2021/03/28 00:13:31;;;;;;;15.40;4.47;;;4.00;86.00;;;;;;5073054;28;20207;-82
2021/03/28 00:16:08;;;;;;;18.87;5.17;;;4.00;86.30;;;;;;5073033;28;20190;-82
2021/03/28 00:18:54;;;;;;;26.43;5.53;;;3.90;86.60;;;;;;5072964;28;20157;-82
2021/03/28 00:21:34;;;;;;;23.60;6.43;;;4.00;86.30;;;;;;5054992;28;20199;-82
2021/03/28 00:24:14;;;;;;;20.10;4.97;;;4.00;86.30;;;;;;5073114;28;20248;-82
2021/03/28 00:27:12;;;;;;;17.60;4.73;;;4.00;86.00;;;;;;5054976;28;20544;-82
2021/03/28 00:30:20;;;;;;;22.23;5.00;;;4.10;85.50;;;;;;5064849;28;20221;-82
2021/03/28 00:33:17;;;;;;;21.50;5.97;;;4.00;85.50;;;;;;5055068;28;20176;-82
2021/03/28 00:35:59;;;;;;;20.80;5.87;;;4.10;85.40;;;;;;5047428;28;20217;-82
2021/03/28 00:38:44;;;;;;;26.33;5.20;;;4.00;85.40;;;;;;5072885;28;20178;-82
2021/03/28 00:41:29;;;;;;;25.80;4.83;;;4.00;85.70;;;;;;5072840;28;20188;-82
2021/03/28 00:44:14;;;;;;;12.67;3.53;;;4.00;85.40;;;;;;5072703;28;20215;-82
2021/03/28 00:47:00;;;;;;;20.57;5.03;;;4.00;85.50;;;;;;5054801;28;20182;-82
2021/03/28 00:49:43;;;;;;;19.90;5.13;;;4.00;85.20;;;;;;5054574;28;20174;-82
2021/03/28 00:52:21;;;;;;;16.03;3.83;;;4.00;85.30;;;;;;5072662;28;20176;-82
2021/03/28 00:55:01;;;;;;;29.63;5.77;;;4.10;85.20;;;;;;5072591;28;20199;-82
2021/03/28 00:57:41;;;;;;;19.50;6.10;;;4.00;85.10;;;;;;5054662;28;20259;-82
2021/03/28 01:00:33;;;;;;;20.40;4.70;;;4.00;85.30;;;;;;5072564;28;20165;-82
2021/03/28 01:03:20;;;;;;;12.97;4.27;;;4.10;85.10;;;;;;5072814;28;20211;-82
2021/03/28 01:05:59;;;;;;;12.40;3.70;;;4.00;85.20;;;;;;5054712;28;20275;-82
2021/03/28 01:08:42;;;;;;;20.43;4.67;;;4.10;85.10;;;;;;5076204;28;20160;-83
2021/03/28 01:11:45;;;;;;;25.90;5.97;;;4.10;85.10;;;;;;5076138;28;20259;-82
2021/03/28 01:14:24;;;;;;;10.17;3.63;;;4.00;85.30;;;;;;5058159;28;20175;-82
2021/03/28 01:17:20;;;;;;;14.67;4.60;;;4.10;85.00;;;;;;5076107;28;20252;-82
2021/03/28 01:20:00;;;;;;;22.47;4.40;;;4.10;84.90;;;;;;5075992;28;20170;-83
2021/03/28 01:22:54;;;;;;;17.90;4.80;;;4.00;85.30;;;;;;5058192;28;20172;-82
2021/03/28 01:25:39;;;;;;;18.17;4.87;;;3.90;85.30;;;;;;5075890;28;20354;-83
2021/03/28 01:28:26;;;;;;;23.33;3.50;;;3.90;85.20;;;;;;5076212;28;20158;-82
2021/03/28 01:31:04;;;;;;;22.47;5.37;;;3.90;85.20;;;;;;5075812;28;20183;-82
2021/03/28 01:33:59;;;;;;;23.07;5.47;;;3.80;85.30;;;;;;5075792;28;20172;-82
2021/03/28 01:36:50;;;;;;;20.57;4.87;;;3.80;85.30;;;;;;5057863;28;20575;-82
2021/03/28 01:39:31;;;;;;;19.30;5.13;;;3.80;85.30;;;;;;5057602;28;20178;-82
2021/03/28 01:42:05;;;;;;;23.07;5.30;;;3.80;85.20;;;;;;5076069;28;20263;-82
2021/03/28 01:44:44;;;;;;;13.97;5.30;;;3.80;84.90;;;;;;5057685;28;20555;-82
2021/03/28 01:47:39;;;;;;;38.17;5.70;;;3.70;85.20;;;;;;5057452;28;20662;-82
2021/03/28 01:50:39;;;;;;;15.73;5.13;;;3.70;85.20;;;;;;5075428;28;20232;-82
2021/03/28 01:53:39;;;;;;;13.73;3.70;;;3.70;85.10;;;;;;5075431;28;20172;-82
2021/03/28 01:56:47;;;;;;;22.80;5.70;;;3.70;84.90;;;;;;5058297;28;20229;-82
2021/03/28 01:59:34;;;;;;;25.90;6.17;;;3.70;85.20;;;;;;5042656;28;20184;-82
2021/03/28 02:02:32;;;;;;;20.50;3.73;;;3.70;84.90;;;;;;5075359;28;20199;-82
2021/03/28 02:05:31;;;;;;;16.63;4.00;;;3.70;84.90;;;;;;5075319;28;20192;-82
2021/03/28 02:08:34;;;;;;;12.07;3.50;;;3.70;84.90;;;;;;5075227;28;20165;-82
2021/03/28 02:11:30;;;;;;;14.80;4.33;;;3.70;85.00;;;;;;5075134;28;20202;-82
2021/03/28 02:14:23;;;;;;;13.70;4.33;;;3.70;84.80;;;;;;5074927;28;20183;-82
2021/03/28 02:17:18;;;;;;;18.10;5.13;;;3.70;84.90;;;;;;5074676;28;20218;-82
2021/03/28 02:20:13;;;;;;;13.50;4.07;;;3.70;84.60;;;;;;5074989;28;20220;-82
2021/03/28 02:23:24;;;;;;;13.97;3.27;;;3.70;84.30;;;;;;5056859;28;20186;-82
2021/03/28 02:26:04;;;;;;;15.93;3.57;;;3.70;84.30;;;;;;5067337;28;20618;-82
2021/03/28 02:28:57;;;;;;;17.30;4.73;;;3.60;84.50;;;;;;5074941;28;20587;-82
2021/03/28 02:31:44;;;;;;;14.83;4.50;;;3.60;84.60;;;;;;5075264;28;20243;-82
2021/03/28 02:34:27;;;;;;;21.23;5.57;;;3.60;84.60;;;;;;5074380;28;20187;-82
2021/03/28 02:37:20;;;;;;;24.50;6.07;;;3.70;84.40;;;;;;5056704;28;20183;-82
2021/03/28 02:40:19;;;;;;;10.67;3.90;;;3.60;84.40;;;;;;5056638;28;20174;-82
2021/03/28 02:43:09;;;;;;;21.10;5.67;;;3.70;84.00;;;;;;5057077;28;20182;-82
2021/03/28 02:45:45;;;;;;;21.80;4.93;;;3.80;83.70;;;;;;5074688;28;20192;-82
2021/03/28 02:48:43;;;;;;;19.37;5.00;;;3.70;83.70;;;;;;5074337;28;20254;-82
2021/03/28 02:51:18;;;;;;;14.50;4.53;;;3.70;83.70;;;;;;5074340;28;20227;-82
2021/03/28 02:54:20;;;;;;;24.67;6.77;;;3.70;83.80;;;;;;5056237;28;20204;-82
2021/03/28 02:57:17;;;;;;;21.33;5.03;;;3.70;83.40;;;;;;5056321;28;20170;-82
2021/03/28 03:00:16;;;;;;;19.57;4.67;;;3.80;83.50;;;;;;5056323;28;20222;-82
2021/03/28 03:02:54;;;;;;;28.17;6.47;;;3.80;83.40;;;;;;5062884;28;20187;-82
2021/03/28 03:05:51;;;;;;;19.20;4.97;;;3.80;83.30;;;;;;5073927;28;20781;-82
2021/03/28 03:08:38;;;;;;;21.57;4.80;;;3.80;83.30;;;;;;5055963;28;20642;-81
2021/03/28 03:11:17;;;;;;;30.97;5.93;;;3.80;83.50;;;;;;5073938;28;20172;-82
2021/03/28 03:14:11;;;;;;;20.73;5.10;;;3.80;83.70;;;;;;5073919;28;20176;-82
2021/03/28 03:17:12;;;;;;;16.37;4.43;;;3.80;83.70;;;;;;5073829;28;20178;-82
2021/03/28 03:20:07;;;;;;;27.40;6.57;;;3.80;83.70;;;;;;5073758;28;20593;-82
2021/03/28 03:23:15;;;;;;;14.03;3.67;;;3.80;83.70;;;;;;5073557;28;20179;-82
2021/03/28 03:26:21;;;;;;;11.07;4.30;;;3.90;82.90;;;;;;5007564;28;20209;-82
2021/03/28 03:29:04;;;;;;;17.97;5.47;;;3.80;83.30;;;;;;5055069;28;20175;-82
2021/03/28 03:31:54;;;;;;;11.63;3.93;;;3.90;82.80;;;;;;5055738;28;20174;-82
2021/03/28 03:34:49;;;;;;;19.47;3.73;;;3.90;83.00;;;;;;5055512;28;20206;-82
2021/03/28 03:37:44;;;;;;;12.50;4.37;;;3.90;82.90;;;;;;5055607;28;20232;-82
2021/03/28 03:40:24;;;;;;;25.63;5.97;;;3.90;82.80;;;;;;5073335;28;20178;-82
2021/03/28 03:43:24;;;;;;;16.53;4.30;;;3.80;83.40;;;;;;5055338;28;20702;-82
2021/03/28 03:46:00;;;;;;;25.37;4.13;;;3.90;83.00;;;;;;5073281;28;20201;-82
2021/03/28 03:48:48;;;;;;;16.97;5.80;;;3.80;83.30;;;;;;5055570;28;20180;-82
2021/03/28 03:51:44;;;;;;;15.73;3.60;;;3.80;83.40;;;;;;5073412;28;20266;-82
2021/03/28 03:54:44;;;;;;;24.13;3.80;;;3.80;83.30;;;;;;5073562;28;20185;-82
2021/03/28 03:57:22;;;;;;;18.07;4.90;;;3.90;83.30;;;;;;5073262;28;20212;-82
2021/03/28 04:00:08;;;;;;;9.40;3.97;;;3.90;83.20;;;;;;5073165;28;20553;-82
2021/03/28 04:02:44;;;;;;;10.53;3.23;;;4.00;82.80;;;;;;5073605;28;20169;-82
2021/03/28 04:05:21;;;;;;;15.27;3.83;;;4.00;83.10;;;;;;5073448;28;20216;-82
2021/03/28 04:08:09;;;;;;;11.30;4.10;;;4.00;83.10;;;;;;5073078;28;20633;-82
2021/03/28 04:10:41;;;;;;;14.47;4.20;;;4.00;83.20;;;;;;5073159;28;20640;-82
2021/03/28 04:13:30;;;;;;;17.73;4.37;;;3.90;83.00;;;;;;5073141;28;20184;-82
2021/03/28 04:16:28;;;;;;;21.90;4.73;;;4.00;82.90;;;;;;5054948;28;20627;-82
2021/03/28 04:19:30;;;;;;;15.53;4.23;;;3.90;83.10;;;;;;5073315;28;20180;-82
2021/03/28 04:22:33;;;;;;;17.70;4.13;;;3.90;83.20;;;;;;5072966;28;20246;-82
2021/03/28 04:25:33;;;;;;;14.20;4.37;;;3.90;83.50;;;;;;5072923;28;20195;-82
2021/03/28 04:28:34;;;;;;;17.87;4.90;;;4.00;83.10;;;;;;5072936;28;20261;-82
2021/03/28 04:31:38;;;;;;;10.77;3.60;;;4.00;83.20;;;;;;5072944;28;20184;-81
2021/03/28 04:34:35;;;;;;;13.80;5.33;;;4.00;83.10;;;;;;5073104;28;20203;-82
2021/03/28 04:37:41;;;;;;;17.00;5.17;;;4.00;82.80;;;;;;5072954;28;20184;-82
2021/03/28 04:40:35;;;;;;;12.23;4.53;;;4.10;82.70;;;;;;5055565;28;20180;-82
2021/03/28 04:43:09;;;;;;;12.13;4.17;;;4.10;82.90;;;;;;5077192;28;20167;-82
2021/03/28 04:46:17;;;;;;;15.07;3.30;;;4.20;82.70;;;;;;5076734;28;20244;-82
2021/03/28 04:48:57;;;;;;;19.57;5.07;;;4.30;82.20;;;;;;5076890;28;20163;-82
2021/03/28 04:51:41;;;;;;;15.13;5.37;;;4.30;82.30;;;;;;5076934;28;20612;-82
2021/03/28 04:54:16;;;;;;;12.87;4.37;;;4.20;82.40;;;;;;5059797;28;20177;-82
2021/03/28 04:57:09;;;;;;;21.60;5.57;;;4.20;82.60;;;;;;5058614;28;20203;-82
2021/03/28 05:00:05;;;;;;;16.00;4.37;;;4.30;82.70;;;;;;5076591;28;20176;-82
2021/03/28 05:03:11;;;;;;;10.80;3.83;;;4.30;82.60;;;;;;5076534;28;20580;-81
2021/03/28 05:05:42;;;;;;;9.23;3.73;;;4.30;82.50;;;;;;5076208;28;20189;-82
2021/03/28 05:08:52;;;;;;;14.10;4.97;;;4.30;82.10;;;;;;5076356;28;20172;-81
2021/03/28 05:11:58;;;;;;;13.07;3.43;;;4.30;82.20;;;;;;5076835;28;20196;-81
2021/03/28 05:15:19;;;;;;;18.10;4.83;;;4.30;82.00;;;;;;5075989;28;20182;-82
2021/03/28 05:18:22;;;;;;;11.17;3.83;;;4.30;82.30;;;;;;4997994;28;20172;-82
2021/03/28 05:20:58;;;;;;;15.87;4.33;;;4.30;82.10;;;;;;5075973;28;20202;-82
2021/03/28 05:23:48;;;;;;;9.37;4.30;;;4.40;82.00;;;;;;5058086;28;20172;-82
2021/03/28 05:26:50;;;;;;;11.93;4.07;;;4.40;82.20;;;;;;5057979;28;20193;-82
2021/03/28 05:29:42;;;;;;;15.23;4.53;;;4.30;82.40;;;;;;5057901;28;20589;-82
2021/03/28 05:32:50;;;;;;;27.57;4.30;;;4.30;82.30;;;;;;5075906;28;20178;-82
2021/03/28 05:35:57;;;;;;;13.30;4.07;;;4.40;81.90;;;;;;5057570;28;20263;-82
2021/03/28 05:38:37;;;;;;;15.80;5.00;;;4.40;82.30;;;;;;5025953;28;20221;-82
2021/03/28 05:41:27;;;;;;;15.00;4.40;;;4.40;82.10;;;;;;5076242;28;20661;-82
2021/03/28 05:44:09;;;;;;;21.33;5.03;;;4.40;82.30;;;;;;5057648;28;20180;-82
2021/03/28 05:47:02;;;;;;;20.67;5.67;;;4.40;82.10;;;;;;5057723;28;20173;-82
2021/03/28 05:50:28;;;;;;;14.60;4.20;;;4.50;81.90;;;;;;5057873;28;20178;-82
2021/03/28 05:53:44;;;;;;;13.60;4.43;;;4.50;81.90;;;;;;5012888;28;20183;-82
2021/03/28 05:56:52;;;;;;;16.43;4.90;;;4.50;81.50;;;;;;5075646;28;20198;-82
2021/03/28 05:59:44;;;;;;;15.10;4.47;;;4.60;81.10;;;;;;5075313;28;20185;-82
2021/03/28 06:02:50;;;;;;;11.13;2.57;;;4.60;81.50;;;;;;5075419;28;20202;-82
2021/03/28 06:05:39;;;;;;;15.10;3.33;;;4.60;81.10;;;;;;5057392;28;20219;-82
2021/03/28 06:08:27;;;;;;;20.87;5.37;;;4.60;81.10;;;;;;5057339;28;20167;-81
2021/03/28 06:11:03;;;;;;;10.67;3.87;;;4.60;81.30;;;;;;5075510;28;20235;-81
2021/03/28 06:14:10;;;;;;;19.50;5.43;;;4.60;81.40;;;;;;5057141;28;20230;-82
2021/03/28 06:17:13;;;;;;;28.10;5.93;;;4.60;81.60;;;;;;5075023;28;20645;-81
2021/03/28 06:20:22;;;;;;;7.67;3.47;;;4.70;81.60;;;;;;5075183;28;20654;-81
2021/03/28 06:23:21;;;;;;;17.40;4.60;;;4.80;81.40;;;;;;5074806;28;20179;-82
2021/03/28 06:26:24;;;;;;;12.20;4.17;;;4.70;81.80;;;;;;5056955;28;20208;-82
2021/03/28 06:29:27;;;;;;;10.00;3.90;;;4.80;81.60;;;;;;5044706;28;20652;-82
2021/03/28 06:32:35;;;;;;;14.03;4.07;;;4.80;81.20;;;;;;5075403;28;20168;-82
2021/03/28 06:35:35;;;;;;;10.63;4.30;;;4.80;81.60;;;;;;5056470;28;20208;-82
2021/03/28 06:38:43;;;;;;;17.67;4.27;;;4.80;81.20;;;;;;5056678;28;20181;-82
2021/03/28 06:41:47;;;;;;;9.80;3.63;;;4.80;81.40;;;;;;5074498;28;20188;-82
2021/03/28 06:44:53;;;;;;;16.10;4.50;;;4.90;80.70;;;;;;5074497;28;20164;-82
2021/03/28 06:48:03;;;;;;;10.30;4.30;;;5.00;81.20;;;;;;5074299;28;20275;-82
2021/03/28 06:50:54;;;;;;;12.07;4.30;;;5.10;80.80;;;;;;5074642;28;20164;-82
2021/03/28 06:53:54;;;;;;;16.87;4.30;;;5.20;80.50;;;;;;5075216;28;20175;-82
2021/03/28 06:56:48;;;;;;;19.60;4.67;;;5.20;79.50;;;;;;5074865;28;20193;-82
2021/03/28 06:59:17;;;;;;;14.97;4.30;;;5.30;80.00;;;;;;5074288;28;20174;-82
2021/03/28 07:02:15;;;;;;;16.77;5.07;;;5.30;79.40;;;;;;5074228;28;20202;-82
2021/03/28 07:05:21;;;;;;;10.33;4.57;;;5.40;80.10;;;;;;5042272;28;20738;-82
2021/03/28 07:08:12;;;;;;;21.83;6.00;;;5.50;79.10;;;;;;5074097;28;20591;-82
2021/03/28 07:11:17;;;;;;;27.80;4.43;;;5.50;79.80;;;;;;5074406;28;20174;-82
2021/03/28 07:13:58;;;;;;;14.83;4.47;;;5.50;79.40;;;;;;5073779;28;20631;-81
2021/03/28 07:16:48;;;;;;;12.77;4.47;;;5.60;79.40;;;;;;5073843;28;20202;-82
2021/03/28 07:19:27;;;;;;;11.10;4.57;;;5.60;79.40;;;;;;5055999;28;20179;-82
2021/03/28 07:22:24;;;;;;;13.67;3.67;;;5.70;79.40;;;;;;5055828;28;20198;-82
2021/03/28 07:25:18;;;;;;;12.30;4.83;;;5.80;79.20;;;;;;5073582;28;20191;-82
2021/03/28 07:28:05;;;;;;;11.23;3.70;;;5.80;79.70;;;;;;5073959;28;20175;-82
2021/03/28 07:30:56;;;;;;;10.67;3.53;;;5.90;79.10;;;;;;5055714;28;20603;-82
2021/03/28 07:33:44;;;;;;;8.67;4.53;;;6.00;79.50;;;;;;5055478;28;20181;-82
2021/03/28 07:36:39;;;;;;;10.53;4.73;;;6.10;79.30;;;;;;5073505;28;20210;-82
2021/03/28 07:39:30;;;;;;;23.77;5.07;;;6.10;80.00;;;;;;5073692;28;20186;-82
2021/03/28 07:42:20;;;;;;;12.37;5.07;;;6.30;79.40;;;;;;5073440;28;20202;-82
2021/03/28 07:45:24;;;;;;;18.07;5.17;;;6.30;78.90;;;;;;5055428;28;20539;-82
2021/03/28 07:48:23;;;;;;;20.93;4.80;;;6.30;78.60;;;;;;5073384;28;20171;-82
2021/03/28 07:51:17;;;;;;;16.63;6.30;;;6.30;77.90;;;;;;5073800;28;20213;-82
2021/03/28 07:54:05;;;;;;;8.20;3.73;;;6.40;78.70;;;;;;5055516;28;20172;-81
2021/03/28 07:56:44;;;;;;;25.60;5.87;;;6.40;78.80;;;;;;5055451;28;20171;-81
2021/03/28 07:59:19;;;;;;;19.70;4.40;;;6.40;78.60;;;;;;5073421;28;20167;-81
2021/03/28 08:02:14;;;;;;;16.10;6.57;;;6.50;78.10;;;;;;5073663;28;20183;-81
2021/03/28 08:05:19;;;;;;;14.90;5.10;;;6.60;79.10;;;;;;5073335;28;20218;-82
2021/03/28 08:07:53;;;;;;;17.30;3.30;;;6.70;79.60;;;;;;5073261;28;20175;-82
2021/03/28 08:10:26;;;;;;;21.47;5.67;;;6.80;78.90;;;;;;5055613;28;20210;-82
2021/03/28 08:13:11;;;;;;;13.83;5.10;;;6.80;78.80;;;;;;5073384;28;20252;-81
2021/03/28 08:16:08;;;;;;;15.10;4.17;;;6.90;78.80;;;;;;5058318;28;20195;-81
2021/03/28 08:19:11;;;;;;;17.40;5.20;;;7.00;77.80;;;;;;5079856;28;20226;-81
2021/03/28 08:22:14;;;;;;;13.20;4.77;;;7.10;77.90;;;;;;5061716;28;20664;-82
2021/03/28 08:25:24;;;;;;;15.03;4.83;;;7.30;78.80;;;;;;5080004;28;20196;-82
2021/03/28 08:28:18;;;;;;;13.07;5.13;;;7.30;77.50;;;;;;5080102;28;20172;-82
2021/03/28 08:31:12;;;;;;;18.63;4.97;;;7.50;79.10;;;;;;5079808;28;20221;-82
2021/03/28 08:34:13;;;;;;;17.40;5.30;;;7.60;78.20;;;;;;5061508;28;20179;-82
2021/03/28 08:37:01;;;;;;;7.17;4.10;;;7.60;77.70;;;;;;5061516;28;20181;-81
2021/03/28 08:40:01;;;;;;;18.27;5.50;;;7.70;78.00;;;;;;5079601;28;20176;-82
2021/03/28 08:42:54;;;;;;;9.80;4.90;;;7.70;78.00;;;;;;5079577;28;20182;-82
2021/03/28 08:45:47;;;;;;;14.17;4.87;;;7.80;77.90;;;;;;5079930;28;20193;-82
2021/03/28 08:48:44;;;;;;;20.47;5.57;;;7.90;76.80;;;;;;5079820;28;20228;-81
2021/03/28 08:51:33;;;;;;;14.77;5.77;;;7.90;77.50;;;;;;5079454;28;20174;-82
2021/03/28 08:54:12;;;;;;;18.40;4.83;;;7.90;77.20;;;;;;5061369;28;20676;-81
2021/03/28 08:56:47;;;;;;;14.00;4.03;;;8.00;78.00;;;;;;5079485;28;20177;-82
2021/03/28 08:59:24;;;;;;;11.30;3.87;;;8.10;78.50;;;;;;5079741;28;20508;-82
2021/03/28 09:02:19;;;;;;;11.47;5.07;;;8.10;78.50;;;;;;5079572;28;20216;-82
2021/03/28 09:04:53;;;;;;;13.27;4.93;;;8.20;77.50;;;;;;5061306;28;20195;-82
2021/03/28 09:07:53;;;;;;;15.40;4.57;;;8.30;77.50;;;;;;5079369;28;20538;-81
2021/03/28 09:10:44;;;;;;;12.00;4.57;;;8.30;77.60;;;;;;5061381;28;20202;-82
2021/03/28 09:13:49;;;;;;;21.60;5.40;;;8.30;76.50;;;;;;5061289;28;20548;-82
2021/03/28 09:16:49;;;;;;;12.13;4.27;;;8.60;77.10;;;;;;5079165;28;20191;-82
2021/03/28 09:19:25;;;;;;;10.77;5.30;;;8.70;76.20;;;;;;5079056;28;20217;-82
2021/03/28 09:22:14;;;;;;;14.83;4.50;;;8.80;76.30;;;;;;5061244;28;20206;-81
2021/03/28 09:25:14;;;;;;;16.17;4.83;;;8.90;76.40;;;;;;5079062;28;20277;-82
2021/03/28 09:28:06;;;;;;;13.20;4.20;;;8.90;76.10;;;;;;5076013;28;20556;-81
2021/03/28 09:30:43;;;;;;;16.10;5.27;;;9.00;75.90;;;;;;5058132;28;20250;-82
2021/03/28 09:33:33;;;;;;;8.60;3.63;;;9.00;74.90;;;;;;5076179;28;20239;-82
2021/03/28 09:36:17;;;;;;;10.83;3.83;;;9.20;75.50;;;;;;5075872;28;20235;-82
2021/03/28 09:39:06;;;;;;;14.93;3.80;;;9.30;75.30;;;;;;5075897;28;20151;-81
2021/03/28 09:42:21;;;;;;;15.50;4.43;;;9.50;74.30;;;;;;5075925;28;20608;-81
2021/03/28 09:45:25;;;;;;;13.33;4.37;;;9.80;74.60;;;;;;5070570;28;20211;-82
2021/03/28 09:48:23;;;;;;;14.50;4.13;;;10.10;74.30;;;;;;5057835;28;20255;-82
2021/03/28 09:51:23;;;;;;;12.83;4.03;;;10.20;74.50;;;;;;5075510;28;20225;-82
2021/03/28 09:54:23;;;;;;;14.67;3.40;;;10.00;72.40;;;;;;5075550;28;20174;-83
2021/03/28 09:57:11;;;;;;;15.07;4.27;;;9.90;72.80;;;;;;5057598;28;20172;-82
2021/03/28 09:59:48;;;;;;;12.60;3.67;;;10.00;73.20;;;;;;5075462;28;20582;-83
2021/03/28 10:02:38;;;;;;;10.87;3.60;;;9.90;72.20;;;;;;5057536;28;20188;-82
2021/03/28 10:05:14;;;;;;;10.20;3.37;;;9.90;73.20;;;;;;5075353;28;20660;-82
2021/03/28 10:07:51;;;;;;;16.10;3.90;;;10.00;72.00;;;;;;5075200;28;20175;-82
2021/03/28 10:10:34;;;;;;;11.80;3.07;;;10.00;71.70;;;;;;5075389;28;20164;-82
2021/03/28 10:13:27;;;;;;;14.00;3.77;;;10.10;72.50;;;;;;5075593;28;20156;-82
2021/03/28 10:16:11;;;;;;;11.17;3.93;;;10.10;71.30;;;;;;5074998;28;20187;-82
2021/03/28 10:18:52;;;;;;;6.97;3.07;;;10.10;71.40;;;;;;5075237;28;20616;-82
2021/03/28 10:21:52;;;;;;;10.83;3.60;;;10.00;71.40;;;;;;5074998;28;20207;-82
2021/03/28 10:24:44;;;;;;;9.47;3.27;;;10.00;72.70;;;;;;5075484;28;20569;-82
2021/03/28 10:27:43;;;;;;;16.43;3.57;;;9.90;72.00;;;;;;5075002;28;20542;-82
2021/03/28 10:30:30;;;;;;;7.63;2.83;;;9.90;71.70;;;;;;5074895;28;20175;-82
2021/03/28 10:33:04;;;;;;;18.50;3.90;;;9.80;72.10;;;;;;5075043;28;20163;-82
2021/03/28 10:35:56;;;;;;;15.13;5.80;;;9.90;72.90;;;;;;5074553;28;20206;-82
2021/03/28 10:38:35;;;;;;;7.43;2.60;;;10.00;73.20;;;;;;5074778;28;20191;-82
2021/03/28 10:41:24;;;;;;;15.07;3.03;;;10.10;70.90;;;;;;5075494;28;20194;-83
2021/03/28 10:44:24;;;;;;;5.70;2.40;;;10.20;72.40;;;;;;5075121;28;20190;-83
2021/03/28 10:47:29;;;;;;;9.07;2.70;;;10.10;71.40;;;;;;5074889;28;20175;-83
2021/03/28 10:50:24;;;;;;;7.27;2.60;;;10.20;71.10;;;;;;5074504;28;20228;-84
2021/03/28 10:53:12;;;;;;;14.97;3.23;;;10.10;71.30;;;;;;5074544;28;20278;-83
2021/03/28 10:55:59;;;;;;;11.50;3.00;;;10.10;71.60;;;;;;5056622;28;20203;-82
2021/03/28 10:59:05;;;;;;;12.53;3.97;;;10.20;72.10;;;;;;5056677;28;20178;-82
2021/03/28 11:01:58;;;;;;;5.83;2.80;;;10.20;71.80;;;;;;5074590;28;20662;-82
2021/03/28 11:05:02;;;;;;;13.17;3.23;;;10.20;71.90;;;;;;5056310;28;20178;-82
2021/03/28 11:08:05;;;;;;;11.90;2.87;;;10.20;70.90;;;;;;5074022;28;20262;-83
2021/03/28 11:10:47;;;;;;;7.83;2.00;;;10.20;70.50;;;;;;5074146;28;20198;-83
2021/03/28 11:13:40;;;;;;;13.77;4.67;;;10.20;71.10;;;;;;5074145;28;20206;-83
2021/03/28 11:16:52;;;;;;;8.00;2.97;;;10.30;70.70;;;;;;5055957;28;20206;-83
2021/03/28 11:20:22;;;;;;;4.67;2.00;;;10.30;70.00;;;;;;5074111;28;20183;-83
2021/03/28 11:23:08;;;;;;;12.37;5.07;;;10.30;70.30;;;;;;5073742;28;20608;-82
2021/03/28 11:26:27;;;;;;;9.67;3.37;;;10.30;70.30;;;;;;5073920;28;20261;-83
2021/03/28 11:29:16;;;;;;;7.90;3.03;;;10.40;69.90;;;;;;5048405;28;20192;-82
2021/03/28 11:32:00;;;;;;;10.17;3.03;;;10.40;71.00;;;;;;5074122;28;20195;-82
2021/03/28 11:34:35;;;;;;;12.27;3.00;;;10.50;70.70;;;;;;5073434;28;20190;-82
2021/03/28 11:37:43;;;;;;;7.37;2.87;;;10.60;71.20;;;;;;5073778;28;20187;-83
2021/03/28 11:40:34;;;;;;;8.63;3.00;;;10.60;70.30;;;;;;5035568;28;20678;-82
2021/03/28 11:43:11;;;;;;;12.03;3.10;;;10.70;70.60;;;;;;5073625;28;20257;-82
2021/03/28 11:45:48;;;;;;;12.43;3.33;;;10.70;69.80;;;;;;5073495;28;20243;-83
2021/03/28 11:48:44;;;;;;;10.07;2.83;;;10.70;69.90;;;;;;5074081;28;20662;-81
2021/03/28 11:51:26;;;;;;;11.30;2.70;;;10.70;70.10;;;;;;5073601;28;20592;-81
2021/03/28 11:54:15;;;;;;;13.33;3.80;;;10.70;71.10;;;;;;5073536;28;20663;-80
2021/03/28 11:56:54;;;;;;;7.17;2.60;;;10.60;72.80;;;;;;5055336;28;20190;-81
2021/03/28 11:59:33;;;;;;;3.83;2.60;;;10.60;71.50;;;;;;5073350;28;20183;-81
2021/03/28 12:02:28;;;;;;;7.90;2.93;;;10.40;73.90;;;;;;5073276;28;20215;-81
2021/03/28 12:05:24;;;;;;;11.17;2.53;;;10.30;74.80;;;;;;5055385;28;20715;-82
2021/03/28 12:08:09;;;;;;;12.33;3.13;;;10.30;74.10;;;;;;5055016;28;20182;-82
2021/03/28 12:10:41;;;;;;;14.50;3.67;;;10.30;76.40;;;;;;5055278;28;20167;-82
2021/03/28 12:13:23;;;;;;;14.07;3.70;;;10.30;75.70;;;;;;5074088;28;20182;-81
2021/03/28 12:15:54;;;;;;;4.90;2.30;;;10.30;74.60;;;;;;5055664;28;20282;-82
2021/03/28 12:18:33;;;;;;;14.83;4.07;;;10.30;77.00;;;;;;5055729;28;20187;-82
2021/03/28 12:21:05;;;;;;;14.20;3.63;;;10.20;77.80;;;;;;5055083;28;20670;-83
2021/03/28 12:23:59;;;;;;;16.80;3.30;;;10.10;77.90;;;;;;5072998;28;20167;-82
2021/03/28 12:26:46;;;;;;;19.03;4.33;;;10.00;79.40;;;;;;5055572;28;20218;-82
2021/03/28 12:29:29;;;;;;;11.93;3.80;;;9.90;79.60;;;;;;5072996;28;20180;-82
2021/03/28 12:31:59;;;;;;;14.47;4.50;;;9.90;80.40;;;;;;5073027;28;20198;-81
2021/03/28 12:34:34;;;;;;;16.47;3.93;;;9.90;82.10;;;;;;5054664;28;20185;-81
2021/03/28 12:37:14;;;;;;;7.73;3.10;;;9.90;81.70;;;;;;5073190;28;20178;-80
2021/03/28 12:39:44;;;;;;;14.50;4.23;;;9.90;81.90;;;;;;5054904;28;20646;-81
2021/03/28 12:42:24;;;;;;;13.03;4.07;;;9.90;81.20;;;;;;5054891;28;20626;-81
2021/03/28 12:45:11;;;;;;;9.87;3.07;;;9.90;82.90;;;;;;5072869;28;20237;-81
2021/03/28 12:47:54;;;;;;;17.30;3.70;;;9.80;81.80;;;;;;5054920;28;20240;-82
2021/03/28 12:50:44;;;;;;;15.90;4.37;;;9.90;82.60;;;;;;5072852;28;20172;-81
2021/03/28 12:53:23;;;;;;;13.47;4.00;;;9.90;82.80;;;;;;5073083;28;20160;-82
2021/03/28 12:55:57;;;;;;;10.93;4.33;;;9.90;83.50;;;;;;5072722;28;20720;-83
2021/03/28 12:58:47;;;;;;;16.13;4.13;;;10.00;83.50;;;;;;5054723;28;20266;-83
2021/03/28 13:01:31;;;;;;;16.13;3.87;;;9.90;83.90;;;;;;5072970;28;20197;-83
2021/03/28 13:04:14;;;;;;;6.50;2.60;;;9.90;83.30;;;;;;5058782;28;20237;-83
2021/03/28 13:06:54;;;;;;;10.40;3.90;;;9.90;82.30;;;;;;5076523;28;20288;-84
2021/03/28 13:09:31;;;;;;;10.20;4.17;;;9.80;83.70;;;;;;5076306;28;20258;-83
2021/03/28 13:12:08;;;;;;;10.90;3.57;;;9.80;84.00;;;;;;5058360;28;20185;-83
2021/03/28 13:14:44;;;;;;;11.87;3.50;;;9.80;83.50;;;;;;5076124;28;20205;-83
2021/03/28 13:17:18;;;;;;;11.10;3.70;;;9.80;84.50;;;;;;5058323;28;20175;-83
2021/03/28 13:19:50;;;;;;;10.17;3.27;;;9.80;82.80;;;;;;5076379;28;20179;-84
2021/03/28 13:22:37;;;;;;;13.80;3.27;;;9.80;82.70;;;;;;5076076;28;20265;-83
2021/03/28 13:25:23;;;;;;;9.03;3.30;;;9.70;82.90;;;;;;5076020;28;20202;-83
2021/03/28 13:28:12;;;;;;;10.10;3.93;;;9.70;83.10;;;;;;5057970;28;20273;-84
2021/03/28 13:30:48;;;;;;;12.33;3.37;;;9.70;83.80;;;;;;5076012;28;20619;-83
2021/03/28 13:33:21;;;;;;;4.57;2.67;;;9.70;83.60;;;;;;5076591;28;20167;-83
2021/03/28 13:35:53;;;;;;;6.60;2.83;;;9.70;82.90;;;;;;5076414;28;20217;-83
2021/03/28 13:38:35;;;;;;;15.37;4.17;;;9.70;84.30;;;;;;5076536;28;20190;-84
2021/03/28 13:41:18;;;;;;;9.00;3.77;;;9.80;83.90;;;;;;5058148;28;20286;-84
2021/03/28 13:43:50;;;;;;;17.57;5.10;;;9.80;84.00;;;;;;5077464;28;20175;-84
2021/03/28 13:46:22;;;;;;;9.67;4.27;;;9.80;84.40;;;;;;5076338;28;20191;-84
2021/03/28 13:49:05;;;;;;;12.17;4.13;;;9.80;84.80;;;;;;5076250;28;20232;-84
2021/03/28 13:51:37;;;;;;;18.93;5.80;;;9.80;85.00;;;;;;5075692;28;20215;-84
2021/03/28 13:54:09;;;;;;;11.67;3.57;;;9.80;84.30;;;;;;5075832;28;20582;-83
2021/03/28 13:56:55;;;;;;;12.67;3.70;;;9.80;84.70;;;;;;5076498;28;20569;-83
2021/03/28 13:59:34;;;;;;;14.97;4.77;;;9.80;85.70;;;;;;5057635;28;20178;-84
2021/03/28 14:02:22;;;;;;;10.20;3.90;;;9.80;85.90;;;;;;5075591;28;20647;-83
2021/03/28 14:05:06;;;;;;;11.00;4.27;;;9.80;86.00;;;;;;5075505;28;20590;-83
2021/03/28 14:07:34;;;;;;;11.80;4.47;;;9.80;85.80;;;;;;5075255;28;20213;-83
2021/03/28 14:10:07;;;;;;;13.67;4.63;;;9.80;86.50;;;;;;5075316;28;20177;-83
2021/03/28 14:12:48;;;;;;;13.17;4.63;;;9.80;86.70;;;;;;5074736;28;20255;-83
2021/03/28 14:15:35;;;;;;;7.93;3.93;;;9.80;86.40;;;;;;5075070;28;20683;-83
2021/03/28 14:18:17;;;;;;;8.47;3.93;;;9.80;87.20;;;;;;5075235;28;20182;-83
2021/03/28 14:20:53;;;;;;;12.23;3.97;;;9.80;86.60;;;;;;5075167;28;20615;-83
2021/03/28 14:23:31;;;;;;;5.90;3.43;;;9.70;85.90;;;;;;5074991;28;20197;-83
2021/03/28 14:26:03;;;;;;;12.23;4.07;;;9.70;86.30;;;;;;5074979;28;20195;-84
2021/03/28 14:28:35;;;;;;;6.80;3.03;;;9.70;86.00;;;;;;5056907;28;20179;-83
2021/03/28 14:31:12;;;;;;;10.03;3.70;;;9.60;85.30;;;;;;5075184;28;20190;-84
2021/03/28 14:34:05;;;;;;;10.93;4.13;;;9.60;86.10;;;;;;5074733;28;20190;-83
2021/03/28 14:36:41;;;;;;;7.73;3.43;;;9.50;85.50;;;;;;5074606;28;20215;-83
2021/03/28 14:39:26;;;;;;;7.37;3.10;;;9.50;86.20;;;;;;5076788;28;20546;-83